sensor_id;sensor_type;location;lat;lon;timestamp;P1;durP1;ratioP1;P2;durP2;ratioP2
69951;SDS011;60406;48.408;13.392;2023-07-29T00:01:19;4.43;;;1.98;;
69951;SDS011;60406;48.408;13.392;2023-07-29T00:06:20;2.75;;;1.77;;
69951;SDS011;60406;48.408;13.392;2023-07-29T00:11:21;3.53;;;2.33;;
69951;SDS011;60406;48.408;13.392;2023-07-29T00:16:21;2.97;;;2.58;;
69951;SDS011;60406;48.408;13.392;2023-07-29T00:21:22;4.10;;;2.58;;
69951;SDS011;60406;48.408;13.392;2023-07-29T00:26:23;6.72;;;2.63;;
69951;SDS011;60406;48.408;13.392;2023-07-29T00:31:25;4.40;;;2.60;;
69951;SDS011;60406;48.408;13.392;2023-07-29T00:36:26;3.60;;;2.75;;
69951;SDS011;60406;48.408;13.392;2023-07-29T00:41:27;2.72;;;2.05;;
69951;SDS011;60406;48.408;13.392;2023-07-29T00:46:28;3.65;;;2.53;;
69951;SDS011;60406;48.408;13.392;2023-07-29T00:51:29;2.97;;;2.55;;
69951;SDS011;60406;48.408;13.392;2023-07-29T00:56:30;4.10;;;2.72;;
69951;SDS011;60406;48.408;13.392;2023-07-29T01:01:31;4.05;;;2.97;;
69951;SDS011;60406;48.408;13.392;2023-07-29T01:06:34;4.50;;;2.67;;
69951;SDS011;60406;48.408;13.392;2023-07-29T01:11:48;3.20;;;2.30;;
69951;SDS011;60406;48.408;13.392;2023-07-29T01:16:56;2.95;;;2.40;;
69951;SDS011;60406;48.408;13.392;2023-07-29T01:22:01;2.70;;;2.22;;
69951;SDS011;60406;48.408;13.392;2023-07-29T01:27:03;4.47;;;2.97;;
69951;SDS011;60406;48.408;13.392;2023-07-29T01:32:07;3.67;;;2.53;;
69951;SDS011;60406;48.408;13.392;2023-07-29T01:37:12;3.28;;;2.92;;
69951;SDS011;60406;48.408;13.392;2023-07-29T01:42:20;4.63;;;2.97;;
69951;SDS011;60406;48.408;13.392;2023-07-29T01:47:21;4.32;;;3.30;;
69951;SDS011;60406;48.408;13.392;2023-07-29T01:52:22;5.00;;;3.50;;
69951;SDS011;60406;48.408;13.392;2023-07-29T01:57:22;4.13;;;3.33;;
69951;SDS011;60406;48.408;13.392;2023-07-29T02:02:23;5.68;;;2.75;;
69951;SDS011;60406;48.408;13.392;2023-07-29T02:07:24;4.40;;;3.35;;
69951;SDS011;60406;48.408;13.392;2023-07-29T02:12:25;7.00;;;3.20;;
69951;SDS011;60406;48.408;13.392;2023-07-29T02:17:26;3.33;;;2.88;;
69951;SDS011;60406;48.408;13.392;2023-07-29T02:22:27;4.22;;;2.65;;
69951;SDS011;60406;48.408;13.392;2023-07-29T02:27:28;3.38;;;3.08;;
69951;SDS011;60406;48.408;13.392;2023-07-29T02:32:28;5.15;;;3.50;;
69951;SDS011;60406;48.408;13.392;2023-07-29T02:37:29;6.68;;;3.38;;
69951;SDS011;60406;48.408;13.392;2023-07-29T02:42:30;3.97;;;3.00;;
69951;SDS011;60406;48.408;13.392;2023-07-29T02:47:31;4.03;;;3.08;;
69951;SDS011;60406;48.408;13.392;2023-07-29T02:52:32;5.95;;;3.22;;
69951;SDS011;60406;48.408;13.392;2023-07-29T02:57:33;4.07;;;3.15;;
69951;SDS011;60406;48.408;13.392;2023-07-29T03:02:34;7.75;;;4.05;;
69951;SDS011;60406;48.408;13.392;2023-07-29T03:07:35;6.65;;;3.45;;
69951;SDS011;60406;48.408;13.392;2023-07-29T03:12:36;5.82;;;3.90;;
69951;SDS011;60406;48.408;13.392;2023-07-29T03:17:37;3.80;;;3.50;;
69951;SDS011;60406;48.408;13.392;2023-07-29T03:22:37;8.48;;;4.20;;
69951;SDS011;60406;48.408;13.392;2023-07-29T03:27:38;3.88;;;3.38;;
69951;SDS011;60406;48.408;13.392;2023-07-29T03:32:43;12.77;;;3.70;;
69951;SDS011;60406;48.408;13.392;2023-07-29T03:37:44;4.97;;;4.03;;
69951;SDS011;60406;48.408;13.392;2023-07-29T03:42:45;5.97;;;3.85;;
69951;SDS011;60406;48.408;13.392;2023-07-29T03:47:46;7.82;;;3.90;;
69951;SDS011;60406;48.408;13.392;2023-07-29T03:52:47;4.43;;;3.92;;
69951;SDS011;60406;48.408;13.392;2023-07-29T03:57:48;6.07;;;3.72;;
69951;SDS011;60406;48.408;13.392;2023-07-29T04:02:49;3.95;;;3.50;;
69951;SDS011;60406;48.408;13.392;2023-07-29T04:07:49;4.28;;;3.58;;
69951;SDS011;60406;48.408;13.392;2023-07-29T04:12:50;10.05;;;4.22;;
69951;SDS011;60406;48.408;13.392;2023-07-29T04:17:51;9.05;;;4.07;;
69951;SDS011;60406;48.408;13.392;2023-07-29T04:22:52;6.40;;;3.95;;
69951;SDS011;60406;48.408;13.392;2023-07-29T04:27:53;5.70;;;3.65;;
69951;SDS011;60406;48.408;13.392;2023-07-29T04:32:54;8.00;;;5.13;;
69951;SDS011;60406;48.408;13.392;2023-07-29T04:37:55;6.75;;;4.40;;
69951;SDS011;60406;48.408;13.392;2023-07-29T04:42:55;9.68;;;4.60;;
69951;SDS011;60406;48.408;13.392;2023-07-29T04:47:57;5.53;;;4.57;;
69951;SDS011;60406;48.408;13.392;2023-07-29T04:52:58;5.78;;;4.28;;
69951;SDS011;60406;48.408;13.392;2023-07-29T04:57:59;5.45;;;4.60;;
69951;SDS011;60406;48.408;13.392;2023-07-29T05:03:00;6.78;;;4.53;;
69951;SDS011;60406;48.408;13.392;2023-07-29T05:08:01;5.05;;;4.43;;
69951;SDS011;60406;48.408;13.392;2023-07-29T05:13:02;4.78;;;4.28;;
69951;SDS011;60406;48.408;13.392;2023-07-29T05:18:02;6.68;;;4.40;;
69951;SDS011;60406;48.408;13.392;2023-07-29T05:23:03;5.00;;;4.13;;
69951;SDS011;60406;48.408;13.392;2023-07-29T05:28:04;5.10;;;3.78;;
69951;SDS011;60406;48.408;13.392;2023-07-29T05:33:05;6.00;;;4.28;;
69951;SDS011;60406;48.408;13.392;2023-07-29T05:38:06;5.95;;;3.90;;
69951;SDS011;60406;48.408;13.392;2023-07-29T05:43:07;6.53;;;4.25;;
69951;SDS011;60406;48.408;13.392;2023-07-29T05:48:07;5.03;;;4.05;;
69951;SDS011;60406;48.408;13.392;2023-07-29T05:53:08;6.30;;;3.58;;
69951;SDS011;60406;48.408;13.392;2023-07-29T05:58:09;8.00;;;3.60;;
69951;SDS011;60406;48.408;13.392;2023-07-29T06:03:10;8.80;;;3.35;;
69951;SDS011;60406;48.408;13.392;2023-07-29T06:08:11;5.30;;;3.40;;
69951;SDS011;60406;48.408;13.392;2023-07-29T06:13:12;5.18;;;3.38;;
69951;SDS011;60406;48.408;13.392;2023-07-29T06:18:13;6.75;;;3.40;;
69951;SDS011;60406;48.408;13.392;2023-07-29T06:23:14;5.40;;;3.53;;
69951;SDS011;60406;48.408;13.392;2023-07-29T06:28:15;5.45;;;3.40;;
69951;SDS011;60406;48.408;13.392;2023-07-29T06:33:16;3.42;;;2.75;;
69951;SDS011;60406;48.408;13.392;2023-07-29T06:38:16;5.20;;;3.22;;
69951;SDS011;60406;48.408;13.392;2023-07-29T06:43:17;3.17;;;2.80;;
69951;SDS011;60406;48.408;13.392;2023-07-29T06:48:18;5.93;;;3.47;;
69951;SDS011;60406;48.408;13.392;2023-07-29T06:53:19;3.72;;;2.90;;
69951;SDS011;60406;48.408;13.392;2023-07-29T06:58:20;4.88;;;2.92;;
69951;SDS011;60406;48.408;13.392;2023-07-29T07:03:21;3.67;;;2.90;;
69951;SDS011;60406;48.408;13.392;2023-07-29T07:08:22;3.17;;;2.78;;
69951;SDS011;60406;48.408;13.392;2023-07-29T07:13:23;4.35;;;3.20;;
69951;SDS011;60406;48.408;13.392;2023-07-29T07:18:24;6.93;;;2.80;;
69951;SDS011;60406;48.408;13.392;2023-07-29T07:23:25;4.03;;;2.85;;
69951;SDS011;60406;48.408;13.392;2023-07-29T07:28:25;4.68;;;2.90;;
69951;SDS011;60406;48.408;13.392;2023-07-29T07:33:26;4.15;;;3.45;;
69951;SDS011;60406;48.408;13.392;2023-07-29T07:38:27;5.00;;;2.78;;
69951;SDS011;60406;48.408;13.392;2023-07-29T07:43:28;3.45;;;3.15;;
69951;SDS011;60406;48.408;13.392;2023-07-29T07:48:29;4.45;;;3.20;;
69951;SDS011;60406;48.408;13.392;2023-07-29T07:53:30;5.25;;;2.78;;
69951;SDS011;60406;48.408;13.392;2023-07-29T07:58:31;4.10;;;3.05;;
69951;SDS011;60406;48.408;13.392;2023-07-29T08:03:32;4.13;;;2.50;;
69951;SDS011;60406;48.408;13.392;2023-07-29T08:08:33;2.55;;;2.10;;
69951;SDS011;60406;48.408;13.392;2023-07-29T08:13:34;4.40;;;2.40;;
69951;SDS011;60406;48.408;13.392;2023-07-29T08:18:34;5.25;;;2.28;;
69951;SDS011;60406;48.408;13.392;2023-07-29T08:23:35;3.20;;;2.30;;
69951;SDS011;60406;48.408;13.392;2023-07-29T08:28:38;2.95;;;2.13;;
69951;SDS011;60406;48.408;13.392;2023-07-29T08:33:39;2.73;;;2.03;;
69951;SDS011;60406;48.408;13.392;2023-07-29T08:38:40;2.92;;;2.10;;
69951;SDS011;60406;48.408;13.392;2023-07-29T08:43:49;2.53;;;2.33;;
69951;SDS011;60406;48.408;13.392;2023-07-29T08:48:53;2.50;;;2.05;;
69951;SDS011;60406;48.408;13.392;2023-07-29T08:53:54;2.45;;;1.98;;
69951;SDS011;60406;48.408;13.392;2023-07-29T08:58:55;5.47;;;2.40;;
69951;SDS011;60406;48.408;13.392;2023-07-29T09:03:56;6.63;;;2.42;;
69951;SDS011;60406;48.408;13.392;2023-07-29T09:08:58;4.65;;;2.58;;
69951;SDS011;60406;48.408;13.392;2023-07-29T09:13:59;4.03;;;2.30;;
69951;SDS011;60406;48.408;13.392;2023-07-29T09:19:03;4.30;;;2.50;;
69951;SDS011;60406;48.408;13.392;2023-07-29T09:24:03;4.22;;;2.60;;
69951;SDS011;60406;48.408;13.392;2023-07-29T09:29:04;8.00;;;3.00;;
69951;SDS011;60406;48.408;13.392;2023-07-29T09:34:05;4.22;;;2.85;;
69951;SDS011;60406;48.408;13.392;2023-07-29T09:39:10;3.22;;;2.70;;
69951;SDS011;60406;48.408;13.392;2023-07-29T09:44:12;4.63;;;3.75;;
69951;SDS011;60406;48.408;13.392;2023-07-29T09:49:12;3.67;;;2.67;;
69951;SDS011;60406;48.408;13.392;2023-07-29T09:54:13;3.67;;;3.15;;
69951;SDS011;60406;48.408;13.392;2023-07-29T09:59:15;3.60;;;2.92;;
69951;SDS011;60406;48.408;13.392;2023-07-29T10:04:19;4.18;;;2.92;;
69951;SDS011;60406;48.408;13.392;2023-07-29T10:09:20;3.55;;;2.70;;
69951;SDS011;60406;48.408;13.392;2023-07-29T10:14:21;3.60;;;2.97;;
69951;SDS011;60406;48.408;13.392;2023-07-29T10:19:24;3.20;;;2.92;;
69951;SDS011;60406;48.408;13.392;2023-07-29T10:24:27;4.05;;;2.97;;
69951;SDS011;60406;48.408;13.392;2023-07-29T10:29:31;4.57;;;2.50;;
69951;SDS011;60406;48.408;13.392;2023-07-29T10:34:32;3.65;;;2.25;;
69951;SDS011;60406;48.408;13.392;2023-07-29T10:39:40;3.58;;;2.90;;
69951;SDS011;60406;48.408;13.392;2023-07-29T10:49:42;2.88;;;2.35;;
69951;SDS011;60406;48.408;13.392;2023-07-29T10:54:44;5.07;;;2.67;;
69951;SDS011;60406;48.408;13.392;2023-07-29T10:59:55;4.75;;;2.78;;
69951;SDS011;60406;48.408;13.392;2023-07-29T11:04:57;5.05;;;2.13;;
69951;SDS011;60406;48.408;13.392;2023-07-29T11:09:59;3.50;;;2.55;;
69951;SDS011;60406;48.408;13.392;2023-07-29T11:20:11;3.38;;;2.30;;
69951;SDS011;60406;48.408;13.392;2023-07-29T11:25:13;1.90;;;1.80;;
69951;SDS011;60406;48.408;13.392;2023-07-29T11:30:15;1.67;;;1.42;;
69951;SDS011;60406;48.408;13.392;2023-07-29T11:35:16;3.10;;;1.95;;
69951;SDS011;60406;48.408;13.392;2023-07-29T11:40:18;2.05;;;1.85;;
69951;SDS011;60406;48.408;13.392;2023-07-29T11:45:22;2.25;;;2.05;;
69951;SDS011;60406;48.408;13.392;2023-07-29T11:50:23;2.55;;;2.25;;
69951;SDS011;60406;48.408;13.392;2023-07-29T11:55:24;3.20;;;2.50;;
69951;SDS011;60406;48.408;13.392;2023-07-29T12:00:25;3.30;;;2.63;;
69951;SDS011;60406;48.408;13.392;2023-07-29T12:05:26;2.80;;;2.50;;
69951;SDS011;60406;48.408;13.392;2023-07-29T12:10:26;2.83;;;2.30;;
69951;SDS011;60406;48.408;13.392;2023-07-29T12:15:28;3.38;;;2.45;;
69951;SDS011;60406;48.408;13.392;2023-07-29T12:20:29;3.90;;;2.67;;
69951;SDS011;60406;48.408;13.392;2023-07-29T12:25:30;3.30;;;2.47;;
69951;SDS011;60406;48.408;13.392;2023-07-29T12:30:31;3.22;;;2.55;;
69951;SDS011;60406;48.408;13.392;2023-07-29T12:35:36;5.90;;;2.63;;
69951;SDS011;60406;48.408;13.392;2023-07-29T12:40:38;3.42;;;2.95;;
69951;SDS011;60406;48.408;13.392;2023-07-29T12:45:39;3.50;;;2.85;;
69951;SDS011;60406;48.408;13.392;2023-07-29T12:50:40;3.70;;;2.78;;
69951;SDS011;60406;48.408;13.392;2023-07-29T12:55:40;4.40;;;3.45;;
69951;SDS011;60406;48.408;13.392;2023-07-29T13:00:41;7.22;;;3.13;;
69951;SDS011;60406;48.408;13.392;2023-07-29T13:05:42;4.05;;;3.50;;
69951;SDS011;60406;48.408;13.392;2023-07-29T13:10:43;5.88;;;3.45;;
69951;SDS011;60406;48.408;13.392;2023-07-29T13:15:44;3.83;;;2.95;;
69951;SDS011;60406;48.408;13.392;2023-07-29T13:20:45;3.17;;;2.75;;
69951;SDS011;60406;48.408;13.392;2023-07-29T13:25:46;1.65;;;1.55;;
69951;SDS011;60406;48.408;13.392;2023-07-29T13:30:46;1.92;;;1.73;;
69951;SDS011;60406;48.408;13.392;2023-07-29T13:35:47;3.00;;;2.20;;
69951;SDS011;60406;48.408;13.392;2023-07-29T13:40:48;1.70;;;1.60;;
69951;SDS011;60406;48.408;13.392;2023-07-29T13:45:49;2.17;;;1.97;;
69951;SDS011;60406;48.408;13.392;2023-07-29T13:50:50;2.13;;;1.93;;
69951;SDS011;60406;48.408;13.392;2023-07-29T13:55:51;2.00;;;1.80;;
69951;SDS011;60406;48.408;13.392;2023-07-29T14:00:51;2.40;;;2.20;;
69951;SDS011;60406;48.408;13.392;2023-07-29T14:05:52;2.85;;;1.90;;
69951;SDS011;60406;48.408;13.392;2023-07-29T14:10:53;1.67;;;1.52;;
69951;SDS011;60406;48.408;13.392;2023-07-29T14:15:54;2.17;;;1.85;;
69951;SDS011;60406;48.408;13.392;2023-07-29T14:20:55;1.35;;;1.25;;
69951;SDS011;60406;48.408;13.392;2023-07-29T14:25:56;2.40;;;1.67;;
69951;SDS011;60406;48.408;13.392;2023-07-29T14:30:57;2.55;;;2.25;;
69951;SDS011;60406;48.408;13.392;2023-07-29T14:35:57;2.55;;;2.35;;
69951;SDS011;60406;48.408;13.392;2023-07-29T14:40:58;3.40;;;2.33;;
69951;SDS011;60406;48.408;13.392;2023-07-29T14:45:59;3.55;;;2.50;;
69951;SDS011;60406;48.408;13.392;2023-07-29T14:51:00;2.72;;;2.20;;
69951;SDS011;60406;48.408;13.392;2023-07-29T14:56:01;2.75;;;2.00;;
69951;SDS011;60406;48.408;13.392;2023-07-29T15:01:02;2.60;;;2.10;;
69951;SDS011;60406;48.408;13.392;2023-07-29T15:06:03;2.40;;;2.03;;
69951;SDS011;60406;48.408;13.392;2023-07-29T15:11:03;4.15;;;1.88;;
69951;SDS011;60406;48.408;13.392;2023-07-29T15:16:04;5.78;;;2.30;;
69951;SDS011;60406;48.408;13.392;2023-07-29T15:21:05;7.93;;;3.95;;
69951;SDS011;60406;48.408;13.392;2023-07-29T15:26:06;3.60;;;2.08;;
69951;SDS011;60406;48.408;13.392;2023-07-29T15:31:07;2.50;;;2.03;;
69951;SDS011;60406;48.408;13.392;2023-07-29T15:36:08;3.03;;;2.03;;
69951;SDS011;60406;48.408;13.392;2023-07-29T15:41:09;2.28;;;1.85;;
69951;SDS011;60406;48.408;13.392;2023-07-29T15:46:09;3.85;;;2.00;;
69951;SDS011;60406;48.408;13.392;2023-07-29T15:51:10;2.63;;;1.90;;
69951;SDS011;60406;48.408;13.392;2023-07-29T15:56:11;2.88;;;1.80;;
69951;SDS011;60406;48.408;13.392;2023-07-29T16:01:12;2.60;;;2.08;;
69951;SDS011;60406;48.408;13.392;2023-07-29T16:06:13;3.38;;;1.92;;
69951;SDS011;60406;48.408;13.392;2023-07-29T16:11:14;2.40;;;2.03;;
69951;SDS011;60406;48.408;13.392;2023-07-29T16:16:15;3.25;;;1.73;;
69951;SDS011;60406;48.408;13.392;2023-07-29T16:21:15;3.55;;;3.10;;
69951;SDS011;60406;48.408;13.392;2023-07-29T16:26:16;2.65;;;1.83;;
69951;SDS011;60406;48.408;13.392;2023-07-29T16:31:17;3.97;;;1.77;;
69951;SDS011;60406;48.408;13.392;2023-07-29T16:36:18;2.55;;;2.08;;
69951;SDS011;60406;48.408;13.392;2023-07-29T16:41:19;2.67;;;1.98;;
69951;SDS011;60406;48.408;13.392;2023-07-29T16:46:20;3.45;;;2.30;;
69951;SDS011;60406;48.408;13.392;2023-07-29T16:51:21;2.38;;;1.92;;
69951;SDS011;60406;48.408;13.392;2023-07-29T16:56:22;3.58;;;2.03;;
69951;SDS011;60406;48.408;13.392;2023-07-29T17:01:23;3.33;;;2.15;;
69951;SDS011;60406;48.408;13.392;2023-07-29T17:06:24;3.78;;;2.33;;
69951;SDS011;60406;48.408;13.392;2023-07-29T17:11:25;5.47;;;3.00;;
69951;SDS011;60406;48.408;13.392;2023-07-29T17:16:25;3.25;;;2.20;;
69951;SDS011;60406;48.408;13.392;2023-07-29T17:21:26;2.70;;;2.17;;
69951;SDS011;60406;48.408;13.392;2023-07-29T17:26:27;2.90;;;2.60;;
69951;SDS011;60406;48.408;13.392;2023-07-29T17:31:28;3.40;;;2.53;;
69951;SDS011;60406;48.408;13.392;2023-07-29T17:36:29;2.67;;;2.40;;
69951;SDS011;60406;48.408;13.392;2023-07-29T17:41:30;2.65;;;2.08;;
69951;SDS011;60406;48.408;13.392;2023-07-29T17:46:31;2.92;;;2.42;;
69951;SDS011;60406;48.408;13.392;2023-07-29T17:51:33;2.60;;;2.10;;
69951;SDS011;60406;48.408;13.392;2023-07-29T17:56:33;3.22;;;2.50;;
69951;SDS011;60406;48.408;13.392;2023-07-29T18:01:34;3.67;;;2.72;;
69951;SDS011;60406;48.408;13.392;2023-07-29T18:06:35;3.72;;;2.45;;
69951;SDS011;60406;48.408;13.392;2023-07-29T18:11:36;3.78;;;2.92;;
69951;SDS011;60406;48.408;13.392;2023-07-29T18:16:37;4.70;;;2.95;;
69951;SDS011;60406;48.408;13.392;2023-07-29T18:21:38;3.47;;;2.83;;
69951;SDS011;60406;48.408;13.392;2023-07-29T18:26:39;3.42;;;2.70;;
69951;SDS011;60406;48.408;13.392;2023-07-29T18:31:40;3.83;;;2.67;;
69951;SDS011;60406;48.408;13.392;2023-07-29T18:36:40;4.28;;;2.92;;
69951;SDS011;60406;48.408;13.392;2023-07-29T18:41:41;2.47;;;2.25;;
69951;SDS011;60406;48.408;13.392;2023-07-29T18:46:42;3.35;;;2.78;;
69951;SDS011;60406;48.408;13.392;2023-07-29T18:51:43;3.53;;;2.80;;
69951;SDS011;60406;48.408;13.392;2023-07-29T18:56:44;4.07;;;2.88;;
69951;SDS011;60406;48.408;13.392;2023-07-29T19:01:45;3.22;;;2.50;;
69951;SDS011;60406;48.408;13.392;2023-07-29T19:06:45;3.25;;;2.60;;
69951;SDS011;60406;48.408;13.392;2023-07-29T19:11:46;3.20;;;2.60;;
69951;SDS011;60406;48.408;13.392;2023-07-29T19:16:47;5.50;;;2.95;;
69951;SDS011;60406;48.408;13.392;2023-07-29T19:21:48;2.97;;;2.67;;
69951;SDS011;60406;48.408;13.392;2023-07-29T19:26:49;3.90;;;2.90;;
69951;SDS011;60406;48.408;13.392;2023-07-29T19:31:50;3.20;;;2.55;;
69951;SDS011;60406;48.408;13.392;2023-07-29T19:36:51;5.05;;;3.70;;
69951;SDS011;60406;48.408;13.392;2023-07-29T19:41:52;3.13;;;2.75;;
69951;SDS011;60406;48.408;13.392;2023-07-29T19:46:52;5.15;;;3.25;;
69951;SDS011;60406;48.408;13.392;2023-07-29T19:51:53;4.05;;;3.03;;
69951;SDS011;60406;48.408;13.392;2023-07-29T19:56:54;4.40;;;3.25;;
69951;SDS011;60406;48.408;13.392;2023-07-29T20:01:55;3.55;;;2.88;;
69951;SDS011;60406;48.408;13.392;2023-07-29T20:06:56;5.65;;;3.08;;
69951;SDS011;60406;48.408;13.392;2023-07-29T20:11:57;5.10;;;3.35;;
69951;SDS011;60406;48.408;13.392;2023-07-29T20:16:58;3.92;;;3.08;;
69951;SDS011;60406;48.408;13.392;2023-07-29T20:21:58;3.78;;;3.22;;
69951;SDS011;60406;48.408;13.392;2023-07-29T20:26:59;3.47;;;3.10;;
69951;SDS011;60406;48.408;13.392;2023-07-29T20:32:00;3.75;;;3.28;;
69951;SDS011;60406;48.408;13.392;2023-07-29T20:37:01;3.95;;;3.35;;
69951;SDS011;60406;48.408;13.392;2023-07-29T20:42:02;3.97;;;3.20;;
69951;SDS011;60406;48.408;13.392;2023-07-29T20:47:03;10.02;;;3.55;;
69951;SDS011;60406;48.408;13.392;2023-07-29T20:52:05;5.80;;;4.32;;
69951;SDS011;60406;48.408;13.392;2023-07-29T20:57:06;6.85;;;3.42;;
69951;SDS011;60406;48.408;13.392;2023-07-29T21:02:07;3.95;;;3.35;;
69951;SDS011;60406;48.408;13.392;2023-07-29T21:07:07;5.45;;;3.70;;
69951;SDS011;60406;48.408;13.392;2023-07-29T21:12:08;4.88;;;3.78;;
69951;SDS011;60406;48.408;13.392;2023-07-29T21:17:09;4.93;;;3.47;;
69951;SDS011;60406;48.408;13.392;2023-07-29T21:22:10;5.50;;;3.35;;
69951;SDS011;60406;48.408;13.392;2023-07-29T21:27:11;5.88;;;3.40;;
69951;SDS011;60406;48.408;13.392;2023-07-29T21:32:12;3.58;;;3.08;;
69951;SDS011;60406;48.408;13.392;2023-07-29T21:37:13;4.32;;;3.92;;
69951;SDS011;60406;48.408;13.392;2023-07-29T21:42:14;4.03;;;3.20;;
69951;SDS011;60406;48.408;13.392;2023-07-29T21:47:15;3.58;;;3.25;;
69951;SDS011;60406;48.408;13.392;2023-07-29T21:52:15;3.42;;;3.03;;
69951;SDS011;60406;48.408;13.392;2023-07-29T21:57:16;4.85;;;3.30;;
69951;SDS011;60406;48.408;13.392;2023-07-29T22:02:17;3.42;;;2.90;;
69951;SDS011;60406;48.408;13.392;2023-07-29T22:07:18;3.65;;;3.35;;
69951;SDS011;60406;48.408;13.392;2023-07-29T22:12:19;4.55;;;3.33;;
69951;SDS011;60406;48.408;13.392;2023-07-29T22:17:20;7.30;;;3.35;;
69951;SDS011;60406;48.408;13.392;2023-07-29T22:22:21;3.78;;;3.35;;
69951;SDS011;60406;48.408;13.392;2023-07-29T22:27:21;5.63;;;4.00;;
69951;SDS011;60406;48.408;13.392;2023-07-29T22:32:22;8.77;;;3.38;;
69951;SDS011;60406;48.408;13.392;2023-07-29T22:37:23;4.07;;;3.33;;
69951;SDS011;60406;48.408;13.392;2023-07-29T22:42:24;3.60;;;3.17;;
69951;SDS011;60406;48.408;13.392;2023-07-29T22:47:25;4.95;;;3.60;;
69951;SDS011;60406;48.408;13.392;2023-07-29T22:52:26;6.78;;;4.10;;
69951;SDS011;60406;48.408;13.392;2023-07-29T22:57:27;4.80;;;3.50;;
69951;SDS011;60406;48.408;13.392;2023-07-29T23:02:28;4.13;;;3.75;;
69951;SDS011;60406;48.408;13.392;2023-07-29T23:07:29;5.07;;;3.22;;
69951;SDS011;60406;48.408;13.392;2023-07-29T23:12:30;4.10;;;3.70;;
69951;SDS011;60406;48.408;13.392;2023-07-29T23:17:30;6.95;;;4.43;;
69951;SDS011;60406;48.408;13.392;2023-07-29T23:22:31;4.07;;;3.67;;
69951;SDS011;60406;48.408;13.392;2023-07-29T23:27:32;4.00;;;3.33;;
69951;SDS011;60406;48.408;13.392;2023-07-29T23:32:33;3.85;;;3.35;;
69951;SDS011;60406;48.408;13.392;2023-07-29T23:37:34;4.18;;;3.78;;
69951;SDS011;60406;48.408;13.392;2023-07-29T23:42:35;3.60;;;3.28;;
69951;SDS011;60406;48.408;13.392;2023-07-29T23:47:36;5.15;;;3.65;;
69951;SDS011;60406;48.408;13.392;2023-07-29T23:52:36;3.67;;;3.30;;
69951;SDS011;60406;48.408;13.392;2023-07-29T23:57:37;4.43;;;3.33;;
